Time;durP1;ratioP1;P1;durP2;ratioP2;P2;SDS_P1;SDS_P2;PMS_P1;PMS_P2;Temp;Humidity;BMP_temperature;BMP_pressure;BME280_temperature;BME280_humidity;BME280_pressure;Samples;Min_cycle;Max_cycle;Signal;HPM_P1;HPM_P2
2022/10/10 00:01:06;;;;;;;9.85;6.65;;;16.90;99.90;;;;;;5031637;28;20476;-65
2022/10/10 00:04:10;;;;;;;11.25;7.93;;;16.80;99.90;;;;;;5030662;28;20044;-65
2022/10/10 00:07:14;;;;;;;10.35;7.05;;;16.80;99.90;;;;;;5031111;28;20068;-65
2022/10/10 00:10:18;;;;;;;7.70;6.22;;;16.80;99.90;;;;;;5031323;28;20049;-65
2022/10/10 00:13:22;;;;;;;8.18;6.18;;;16.90;99.90;;;;;;5030655;28;20058;-65
2022/10/10 00:16:26;;;;;;;10.88;8.10;;;16.80;99.90;;;;;;5031106;28;20049;-66
2022/10/10 00:19:30;;;;;;;11.02;7.72;;;16.70;99.90;;;;;;5030675;28;20048;-65
2022/10/10 00:22:34;;;;;;;14.52;9.32;;;16.60;99.90;;;;;;5030009;28;20061;-65
2022/10/10 00:25:38;;;;;;;13.20;9.27;;;16.50;99.90;;;;;;5030340;28;20044;-65
2022/10/10 00:28:42;;;;;;;15.98;10.82;;;16.50;99.90;;;;;;5030901;28;20388;-65
2022/10/10 00:31:46;;;;;;;19.17;13.13;;;16.40;99.90;;;;;;5029570;28;20045;-65
2022/10/10 00:34:50;;;;;;;15.45;11.82;;;16.50;99.90;;;;;;5030351;28;20041;-65
2022/10/10 00:37:54;;;;;;;15.15;11.68;;;16.50;99.90;;;;;;5030450;28;20056;-65
2022/10/10 00:40:58;;;;;;;18.75;11.90;;;16.60;99.90;;;;;;5030805;28;20389;-66
2022/10/10 00:44:11;;;;;;;18.70;12.45;;;16.60;99.90;;;;;;5030251;28;20507;-65
2022/10/10 00:47:15;;;;;;;17.83;11.73;;;16.60;99.90;;;;;;5030246;28;20053;-65
2022/10/10 00:50:22;;;;;;;18.63;13.68;;;16.70;99.90;;;;;;5029929;28;20045;-65
2022/10/10 00:53:52;;;;;;;18.48;12.30;;;16.60;99.90;;;;;;5030292;28;20056;-65
2022/10/10 00:57:01;;;;;;;16.50;10.63;;;16.70;99.90;;;;;;5030769;28;20060;-65
2022/10/10 01:00:06;;;;;;;12.15;8.77;;;16.70;99.90;;;;;;5030326;28;20052;-65
2022/10/10 01:03:10;;;;;;;15.00;10.43;;;16.70;99.90;;;;;;5029992;28;20049;-65
2022/10/10 01:06:14;;;;;;;15.57;9.93;;;16.70;99.90;;;;;;5030143;28;20053;-65
2022/10/10 01:09:18;;;;;;;14.25;10.48;;;16.70;99.90;;;;;;5030037;28;20519;-65
2022/10/10 01:12:44;;;;;;;13.35;9.27;;;16.80;99.90;;;;;;5030384;28;20396;-65
2022/10/10 01:16:05;;;;;;;13.43;9.85;;;16.80;99.90;;;;;;5030352;28;20037;-65
2022/10/10 01:19:37;;;;;;;19.73;11.20;;;16.90;99.90;;;;;;5030114;28;20032;-65
2022/10/10 01:23:19;;;;;;;14.85;10.15;;;16.80;99.90;;;;;;5029770;28;20037;-65
2022/10/10 01:27:00;;;;;;;14.27;9.63;;;16.80;99.90;;;;;;5046388;28;20180;-65
2022/10/10 01:30:18;;;;;;;11.00;9.07;;;16.70;99.90;;;;;;5030087;28;20052;-65
2022/10/10 01:33:35;;;;;;;13.15;9.25;;;16.80;99.90;;;;;;5029659;28;20377;-66
2022/10/10 01:36:57;;;;;;;17.23;10.75;;;16.90;99.90;;;;;;5029931;28;20397;-65
2022/10/10 01:40:23;;;;;;;14.73;10.65;;;16.90;99.90;;;;;;5029496;28;20052;-65
2022/10/10 01:43:28;;;;;;;15.50;10.65;;;17.00;99.90;;;;;;5029214;28;20043;-65
2022/10/10 01:46:32;;;;;;;18.38;11.93;;;17.00;99.90;;;;;;5029753;28;20048;-65
2022/10/10 01:49:39;;;;;;;16.65;11.82;;;17.00;99.90;;;;;;5029681;28;20032;-66
2022/10/10 01:53:20;;;;;;;18.17;12.07;;;16.90;99.90;;;;;;5029419;28;20040;-66
2022/10/10 01:56:41;;;;;;;16.00;13.05;;;16.90;99.90;;;;;;5029660;28;20040;-65
2022/10/10 02:00:10;;;;;;;15.27;11.63;;;16.90;99.90;;;;;;5029566;28;20048;-65
2022/10/10 02:03:26;;;;;;;16.15;11.32;;;16.90;99.90;;;;;;5033331;28;20049;-65
2022/10/10 02:06:39;;;;;;;18.05;11.82;;;17.00;99.90;;;;;;5033942;28;20048;-65
2022/10/10 02:09:45;;;;;;;15.90;12.40;;;17.00;99.90;;;;;;5033563;28;20041;-66
2022/10/10 02:12:49;;;;;;;18.38;14.02;;;16.90;99.90;;;;;;5033439;28;20033;-66
2022/10/10 02:15:56;;;;;;;18.90;13.32;;;16.90;99.90;;;;;;5033671;28;20056;-65
2022/10/10 02:19:02;;;;;;;17.67;13.82;;;16.90;99.90;;;;;;5033213;28;20433;-65
2022/10/10 02:22:07;;;;;;;21.23;13.63;;;16.90;99.90;;;;;;5033368;28;20040;-66
2022/10/10 02:25:12;;;;;;;21.20;13.45;;;16.90;99.90;;;;;;5033011;28;20048;-65
2022/10/10 02:28:30;;;;;;;15.32;12.00;;;17.00;99.90;;;;;;5033216;28;20053;-65
2022/10/10 02:31:38;;;;;;;19.08;11.40;;;16.90;99.90;;;;;;5033352;28;20385;-65
2022/10/10 02:34:46;;;;;;;14.48;10.48;;;16.90;99.90;;;;;;5032387;28;20049;-65
2022/10/10 02:37:53;;;;;;;16.92;11.05;;;16.90;99.90;;;;;;5033125;28;20039;-65
2022/10/10 02:41:02;;;;;;;15.57;12.20;;;16.90;99.90;;;;;;5032896;28;20052;-65
2022/10/10 02:44:06;;;;;;;15.10;11.55;;;16.90;99.90;;;;;;5032462;28;20511;-65
2022/10/10 02:47:10;;;;;;;15.77;11.40;;;17.00;99.90;;;;;;5032483;28;20044;-65
2022/10/10 02:50:14;;;;;;;18.15;11.23;;;17.00;99.90;;;;;;5032593;28;20040;-65
2022/10/10 02:53:18;;;;;;;16.67;13.05;;;16.90;99.90;;;;;;5032220;28;20408;-65
2022/10/10 02:56:22;;;;;;;17.08;12.85;;;16.80;99.90;;;;;;5032571;28;20060;-66
2022/10/10 02:59:27;;;;;;;27.63;13.18;;;16.70;99.90;;;;;;5032733;28;20041;-65
2022/10/10 03:02:31;;;;;;;17.75;12.43;;;16.80;99.90;;;;;;5032455;28;20064;-65
2022/10/10 03:05:35;;;;;;;16.98;12.68;;;16.80;99.90;;;;;;5032404;28;20114;-66
2022/10/10 03:08:40;;;;;;;15.40;11.20;;;16.80;99.90;;;;;;5032346;28;20507;-66
2022/10/10 03:11:44;;;;;;;13.32;10.15;;;16.80;99.90;;;;;;5031775;28;20044;-65
2022/10/10 03:14:47;;;;;;;18.90;10.85;;;16.80;99.90;;;;;;5031821;28;20048;-66
2022/10/10 03:17:52;;;;;;;14.20;10.80;;;16.80;99.90;;;;;;5032368;28;20396;-65
2022/10/10 03:20:56;;;;;;;13.40;10.38;;;16.80;99.90;;;;;;5032007;28;20064;-66
2022/10/10 03:24:00;;;;;;;12.60;10.18;;;16.80;99.90;;;;;;5031706;28;20048;-65
2022/10/10 03:27:04;;;;;;;17.95;11.32;;;16.80;99.90;;;;;;5031715;28;20044;-66
2022/10/10 03:30:08;;;;;;;16.05;10.95;;;16.90;99.90;;;;;;5031836;28;20045;-65
2022/10/10 03:33:12;;;;;;;14.70;9.95;;;17.00;99.90;;;;;;5031690;28;20057;-65
2022/10/10 03:36:17;;;;;;;14.13;10.77;;;16.90;99.90;;;;;;5031754;28;20040;-65
2022/10/10 03:39:20;;;;;;;13.05;9.80;;;17.00;99.90;;;;;;5031818;28;20056;-65
2022/10/10 03:42:26;;;;;;;12.73;10.43;;;17.00;99.90;;;;;;5031647;28;20326;-65
2022/10/10 03:45:30;;;;;;;14.95;9.63;;;16.90;99.90;;;;;;5031212;28;20036;-65
2022/10/10 03:48:35;;;;;;;18.17;10.75;;;16.90;99.90;;;;;;5031498;28;20045;-65
2022/10/10 03:51:39;;;;;;;16.67;10.85;;;16.80;99.90;;;;;;5031413;28;20040;-64
2022/10/10 03:54:43;;;;;;;17.00;11.10;;;16.70;99.90;;;;;;5030195;28;20040;-66
2022/10/10 03:57:47;;;;;;;14.63;10.45;;;16.80;99.90;;;;;;5031489;28;20080;-65
2022/10/10 04:00:57;;;;;;;15.63;10.82;;;16.80;99.90;;;;;;5031282;28;20044;-65
2022/10/10 04:04:00;;;;;;;14.82;11.10;;;16.80;99.90;;;;;;5029764;28;20041;-66
2022/10/10 04:07:04;;;;;;;14.10;11.30;;;16.80;99.90;;;;;;5031206;28;20049;-65
2022/10/10 04:10:08;;;;;;;15.90;11.23;;;16.80;99.90;;;;;;5031295;28;20155;-65
2022/10/10 04:13:13;;;;;;;14.90;11.52;;;16.80;99.90;;;;;;5030917;28;20044;-65
2022/10/10 04:16:16;;;;;;;15.32;12.15;;;16.90;99.90;;;;;;5031194;28;20048;-65
2022/10/10 04:19:20;;;;;;;17.38;12.35;;;16.90;99.90;;;;;;5030962;28;20070;-65
2022/10/10 04:22:24;;;;;;;20.75;11.98;;;16.90;99.90;;;;;;5030795;28;20048;-65
2022/10/10 04:25:28;;;;;;;19.95;12.23;;;16.70;99.90;;;;;;5030400;28;20045;-65
2022/10/10 04:28:32;;;;;;;18.60;12.95;;;16.60;99.90;;;;;;5029925;28;20044;-65
2022/10/10 04:31:36;;;;;;;18.83;13.43;;;16.60;99.90;;;;;;5027758;28;20414;-65
2022/10/10 04:34:40;;;;;;;17.60;13.13;;;16.50;99.90;;;;;;5030370;28;20068;-64
2022/10/10 04:37:45;;;;;;;19.80;12.80;;;16.50;99.90;;;;;;5031246;28;20045;-65
2022/10/10 04:40:50;;;;;;;18.08;12.30;;;16.60;99.90;;;;;;5030915;28;20056;-65
2022/10/10 04:43:54;;;;;;;15.75;13.10;;;16.60;99.90;;;;;;5030687;28;20040;-65
2022/10/10 04:46:58;;;;;;;16.92;13.18;;;16.60;99.90;;;;;;5031182;28;20048;-65
2022/10/10 04:50:02;;;;;;;23.55;14.07;;;16.50;99.90;;;;;;5030645;28;20048;-65
2022/10/10 04:53:06;;;;;;;17.55;13.45;;;16.50;99.90;;;;;;5031006;28;20100;-64
2022/10/10 04:56:11;;;;;;;24.42;13.85;;;16.50;99.90;;;;;;5030810;28;20048;-64
2022/10/10 04:59:14;;;;;;;17.80;13.02;;;16.50;99.90;;;;;;5030804;28;20040;-64
2022/10/10 05:02:18;;;;;;;22.92;12.88;;;16.50;99.90;;;;;;5030237;28;20044;-64
2022/10/10 05:05:22;;;;;;;22.08;14.25;;;16.50;99.90;;;;;;5030558;28;20039;-64
2022/10/10 05:08:26;;;;;;;19.83;14.90;;;16.50;99.90;;;;;;5030303;28;20044;-64
2022/10/10 05:11:30;;;;;;;17.55;13.90;;;16.50;99.90;;;;;;5030332;28;20440;-64
2022/10/10 05:14:34;;;;;;;18.38;13.65;;;16.50;99.90;;;;;;5030046;28;20040;-64
2022/10/10 05:17:39;;;;;;;21.48;14.32;;;16.50;99.90;;;;;;5030617;28;20060;-64
2022/10/10 05:20:46;;;;;;;23.98;16.63;;;16.60;99.90;;;;;;5030316;28;20044;-64
2022/10/10 05:23:50;;;;;;;21.42;14.75;;;16.50;99.90;;;;;;5030147;28;20044;-64
2022/10/10 05:26:54;;;;;;;19.92;15.25;;;16.30;99.90;;;;;;5030261;28;20045;-64
2022/10/10 05:29:58;;;;;;;22.05;15.75;;;16.30;99.90;;;;;;5030186;28;20056;-64
2022/10/10 05:33:02;;;;;;;19.55;14.25;;;16.20;99.90;;;;;;5030002;28;20045;-64
2022/10/10 05:36:12;;;;;;;33.22;16.95;;;16.10;99.90;;;;;;5032212;28;20499;-64
2022/10/10 05:39:16;;;;;;;25.35;16.90;;;15.70;99.90;;;;;;5034218;28;20063;-65
2022/10/10 05:42:20;;;;;;;24.90;16.70;;;15.70;99.90;;;;;;5034308;28;20044;-64
2022/10/10 05:45:24;;;;;;;25.02;16.15;;;15.70;99.90;;;;;;5033754;28;20056;-64
2022/10/10 05:48:28;;;;;;;25.02;16.42;;;15.80;99.90;;;;;;5033740;28;20044;-64
2022/10/10 05:51:32;;;;;;;24.05;16.77;;;15.90;99.90;;;;;;5033851;28;20052;-64
2022/10/10 05:54:36;;;;;;;24.48;16.95;;;15.90;99.90;;;;;;5033470;28;20052;-64
2022/10/10 05:57:40;;;;;;;23.00;16.50;;;16.00;99.90;;;;;;5034027;28;20420;-64
2022/10/10 06:00:45;;;;;;;24.67;16.50;;;16.20;99.90;;;;;;5033986;28;20045;-64
2022/10/10 06:03:54;;;;;;;24.25;16.73;;;16.30;99.90;;;;;;5033180;28;20484;-64
2022/10/10 06:06:58;;;;;;;21.40;15.25;;;16.30;99.90;;;;;;5032166;28;20068;-64
2022/10/10 06:10:03;;;;;;;19.83;14.32;;;16.40;99.90;;;;;;5033818;28;20737;-64
2022/10/10 06:13:07;;;;;;;17.33;14.20;;;16.70;99.90;;;;;;5033218;28;20056;-64
2022/10/10 06:16:11;;;;;;;19.35;14.27;;;16.90;99.90;;;;;;5032041;28;20028;-64
2022/10/10 06:19:15;;;;;;;21.35;14.27;;;17.00;99.90;;;;;;5033308;28;20512;-64
2022/10/10 06:22:20;;;;;;;18.95;13.65;;;17.00;99.90;;;;;;5030598;28;20392;-64
2022/10/10 06:25:24;;;;;;;19.73;15.02;;;17.00;99.90;;;;;;5025363;28;20512;-65
2022/10/10 06:28:28;;;;;;;24.77;15.52;;;16.80;99.90;;;;;;5027398;28;20049;-64
2022/10/10 06:31:32;;;;;;;22.85;14.52;;;16.80;99.90;;;;;;5033211;28;20045;-64
2022/10/10 06:34:36;;;;;;;20.45;15.32;;;16.80;99.90;;;;;;5027723;28;20389;-64
2022/10/10 06:37:39;;;;;;;25.42;14.93;;;16.90;99.90;;;;;;5027621;28;20068;-64
2022/10/10 06:40:44;;;;;;;17.58;13.88;;;17.00;99.90;;;;;;5029493;28;20041;-64
2022/10/10 06:43:50;;;;;;;22.10;14.98;;;17.00;99.90;;;;;;5030365;28;20052;-64
2022/10/10 06:46:54;;;;;;;21.83;15.02;;;17.30;99.90;;;;;;5027964;28;20053;-65
2022/10/10 06:49:58;;;;;;;16.13;12.63;;;17.30;99.90;;;;;;5031007;28;20044;-64
2022/10/10 06:53:03;;;;;;;13.63;11.55;;;17.50;99.90;;;;;;5031191;28;20044;-64
2022/10/10 06:56:09;;;;;;;18.38;12.02;;;17.80;99.90;;;;;;5032376;28;20095;-64
2022/10/10 06:59:13;;;;;;;18.25;12.75;;;18.10;99.90;;;;;;5029336;28;20539;-64
2022/10/10 07:02:17;;;;;;;18.60;12.55;;;18.30;99.90;;;;;;5031916;28;20306;-64
2022/10/10 07:05:21;;;;;;;14.23;10.93;;;18.60;99.90;;;;;;5024633;28;20068;-64
2022/10/10 07:08:25;;;;;;;13.63;9.85;;;18.60;99.90;;;;;;5031679;28;20045;-65
2022/10/10 07:11:29;;;;;;;13.30;9.73;;;18.70;99.90;;;;;;5029825;28;20397;-64
2022/10/10 07:14:33;;;;;;;13.70;10.18;;;18.80;99.90;;;;;;5026625;28;20064;-64
2022/10/10 07:17:37;;;;;;;23.80;13.93;;;18.80;99.90;;;;;;5027903;28;20499;-64
2022/10/10 07:20:41;;;;;;;21.58;14.95;;;18.10;99.90;;;;;;5026936;28;20041;-65
2022/10/10 07:23:45;;;;;;;18.70;14.80;;;17.30;99.90;;;;;;5024999;28;20500;-65
2022/10/10 07:26:53;;;;;;;23.75;14.88;;;17.10;99.90;;;;;;5027642;28;20060;-64
2022/10/10 07:29:57;;;;;;;19.45;14.57;;;17.30;99.90;;;;;;5027970;28;20127;-64
2022/10/10 07:33:01;;;;;;;19.63;14.65;;;17.60;99.90;;;;;;5030897;28;20036;-64
2022/10/10 07:36:06;;;;;;;20.15;15.07;;;18.00;99.90;;;;;;5030775;28;20041;-64
2022/10/10 07:39:10;;;;;;;19.05;13.88;;;18.40;99.90;;;;;;5029884;28;20048;-65
2022/10/10 07:42:14;;;;;;;14.30;12.05;;;18.90;99.90;;;;;;5029831;28;20487;-65
2022/10/10 07:45:18;;;;;;;14.82;11.18;;;19.40;99.90;;;;;;5026370;28;20044;-65
2022/10/10 07:48:23;;;;;;;15.15;10.68;;;19.90;99.90;;;;;;5029521;28;20049;-65
2022/10/10 07:51:27;;;;;;;14.90;10.50;;;20.30;99.90;;;;;;5024661;28;20049;-65
2022/10/10 07:54:32;;;;;;;19.08;10.68;;;20.70;99.90;;;;;;5024730;28;20056;-65
2022/10/10 07:57:36;;;;;;;16.35;10.63;;;21.10;99.90;;;;;;5030183;28;20048;-65
2022/10/10 08:00:40;;;;;;;13.82;9.85;;;21.30;99.90;;;;;;5025520;28;20396;-65
2022/10/10 08:03:47;;;;;;;15.02;10.75;;;21.30;99.90;;;;;;5029787;28;20520;-65
2022/10/10 08:06:51;;;;;;;20.75;11.60;;;21.10;99.90;;;;;;5026228;28;20389;-66
2022/10/10 08:09:56;;;;;;;18.02;11.60;;;20.50;99.90;;;;;;5028736;28;20064;-65
2022/10/10 08:13:01;;;;;;;21.40;12.93;;;20.40;99.90;;;;;;5028633;28;20037;-65
2022/10/10 08:16:05;;;;;;;15.90;11.82;;;19.80;99.90;;;;;;5029655;28;20060;-65
2022/10/10 08:19:09;;;;;;;15.77;11.15;;;20.20;99.90;;;;;;5027589;28;20048;-65
2022/10/10 08:22:13;;;;;;;14.20;10.32;;;20.70;99.90;;;;;;5031038;28;20052;-66
2022/10/10 08:25:17;;;;;;;22.75;10.15;;;21.00;99.90;;;;;;5027256;28;20052;-65
2022/10/10 08:28:21;;;;;;;14.95;11.05;;;21.60;99.90;;;;;;5022013;28;20116;-64
2022/10/10 08:31:25;;;;;;;14.45;9.07;;;22.30;99.90;;;;;;5027822;28;20040;-65
2022/10/10 08:34:29;;;;;;;13.00;8.75;;;22.30;99.90;;;;;;5026626;28;20052;-64
2022/10/10 08:37:33;;;;;;;17.08;9.07;;;22.80;99.90;;;;;;5023675;28;20048;-64
2022/10/10 08:40:48;;;;;;;13.45;9.13;;;23.40;99.90;;;;;;5022697;28;20547;-64
2022/10/10 08:44:22;;;;;;;10.07;8.52;;;24.30;99.90;;;;;;5028657;28;20044;-65
2022/10/10 08:47:43;;;;;;;14.32;9.10;;;24.20;99.90;;;;;;5031892;28;20056;-65
2022/10/10 08:50:54;;;;;;;17.00;10.15;;;24.20;99.90;;;;;;5028670;28;20040;-64
2022/10/10 08:54:03;;;;;;;18.20;10.10;;;23.20;99.90;;;;;;5027256;28;20037;-64
2022/10/10 08:57:22;;;;;;;12.55;9.10;;;23.70;99.90;;;;;;5028144;28;20044;-64
2022/10/10 09:00:32;;;;;;;12.50;8.35;;;24.60;99.90;;;;;;5022557;28;20045;-64
2022/10/10 09:03:44;;;;;;;10.98;8.32;;;25.20;99.90;;;;;;5025242;28;20044;-65
2022/10/10 09:06:55;;;;;;;7.60;6.80;;;25.70;99.90;;;;;;5023468;28;20121;-65
2022/10/10 09:10:15;;;;;;;11.27;6.78;;;25.90;99.90;;;;;;5024769;28;20389;-65
2022/10/10 09:13:34;;;;;;;7.90;5.63;;;26.10;99.90;;;;;;5021132;28;20032;-65
2022/10/10 09:16:47;;;;;;;7.35;6.50;;;26.30;99.90;;;;;;5027669;28;20036;-65
2022/10/10 09:20:15;;;;;;;10.15;7.32;;;26.50;99.90;;;;;;5025396;28;20040;-65
2022/10/10 09:23:19;;;;;;;10.60;7.97;;;25.90;99.90;;;;;;5025042;28;20037;-66
2022/10/10 09:26:31;;;;;;;16.52;7.32;;;27.00;99.90;;;;;;5027846;28;20384;-65
2022/10/10 09:29:51;;;;;;;7.95;7.15;;;28.50;99.90;;;;;;5024560;28;20054;-65
2022/10/10 09:33:16;;;;;;;9.63;7.22;;;28.50;99.90;;;;;;5030827;28;20056;-65
2022/10/10 09:36:27;;;;;;;8.32;7.03;;;27.10;99.90;;;;;;5026396;28;20044;-65
2022/10/10 09:39:37;;;;;;;10.82;6.50;;;25.30;99.90;;;;;;5010447;28;20061;-65
2022/10/10 09:42:43;;;;;;;11.10;7.65;;;23.30;99.90;;;;;;5029724;28;20044;-65
2022/10/10 09:45:51;;;;;;;13.07;8.05;;;22.50;99.90;;;;;;5028299;28;20037;-65
2022/10/10 09:48:56;;;;;;;10.23;8.20;;;22.80;99.90;;;;;;5028837;28;20044;-65
2022/10/10 09:52:15;;;;;;;12.95;8.30;;;22.50;99.90;;;;;;5029544;28;20117;-65
2022/10/10 09:55:25;;;;;;;9.48;7.75;;;22.40;99.90;;;;;;5028204;28;20040;-65
2022/10/10 09:58:32;;;;;;;12.38;7.60;;;22.70;99.90;;;;;;5022564;28;20048;-65
2022/10/10 10:01:36;;;;;;;11.18;7.80;;;22.80;99.90;;;;;;5027950;28;20045;-65
2022/10/10 10:04:40;;;;;;;13.50;8.15;;;22.90;99.90;;;;;;5023193;28;20040;-64
2022/10/10 10:07:51;;;;;;;10.55;7.50;;;23.40;99.90;;;;;;5027621;28;20389;-65
2022/10/10 10:10:58;;;;;;;10.48;6.82;;;23.80;99.90;;;;;;5017515;28;20795;-64
2022/10/10 10:14:03;;;;;;;8.00;7.03;;;24.50;99.90;;;;;;5027069;28;20040;-65
2022/10/10 10:17:17;;;;;;;12.45;7.15;;;25.20;99.90;;;;;;5029725;28;20045;-65
2022/10/10 10:20:35;;;;;;;11.10;7.43;;;25.60;99.90;;;;;;5017372;28;20049;-65
2022/10/10 10:24:17;;;;;;;7.47;6.70;;;25.80;99.90;;;;;;5032691;28;20032;-65
2022/10/10 10:27:23;;;;;;;8.23;6.25;;;25.90;99.90;;;;;;5020165;28;20037;-65
2022/10/10 10:30:27;;;;;;;13.35;6.70;;;25.90;99.90;;;;;;5024833;28;20056;-65
2022/10/10 10:33:43;;;;;;;9.73;5.85;;;26.60;99.90;;;;;;5032664;28;20040;-65
2022/10/10 10:37:06;;;;;;;9.48;6.28;;;26.90;99.90;;;;;;5033519;28;20420;-65
2022/10/10 10:40:34;;;;;;;8.65;6.22;;;27.10;99.90;;;;;;5032507;28;20052;-65
2022/10/10 10:43:53;;;;;;;9.13;6.28;;;28.10;99.90;;;;;;5031534;28;20158;-65
2022/10/10 10:47:22;;;;;;;8.48;6.00;;;28.60;99.90;;;;;;5030910;28;20036;-65
2022/10/10 10:50:38;;;;;;;9.02;6.95;;;27.40;99.90;;;;;;5031851;28;20413;-66
2022/10/10 10:53:48;;;;;;;10.13;7.05;;;27.00;99.90;;;;;;5029960;28;20040;-65
2022/10/10 10:57:06;;;;;;;11.68;6.93;;;27.20;99.90;;;;;;5031577;28;20388;-67
2022/10/10 11:00:10;;;;;;;9.15;6.80;;;27.30;99.90;;;;;;5025728;28;20045;-66
2022/10/10 11:03:41;;;;;;;11.93;7.60;;;27.30;99.90;;;;;;5025190;28;20067;-65
2022/10/10 11:06:45;;;;;;;;;;;25.70;99.90;;;;;;5028622;28;20056;-66
2022/10/10 11:10:16;;;;;;;10.10;7.00;;;25.60;99.90;;;;;;5031876;28;19917;-66
2022/10/10 11:13:57;;;;;;;10.43;7.93;;;25.80;99.90;;;;;;5032311;28;20504;-65
2022/10/10 11:17:18;;;;;;;16.17;7.45;;;26.30;99.90;;;;;;5015140;28;20491;-65
2022/10/10 11:20:35;;;;;;;15.02;7.63;;;26.30;99.90;;;;;;5021996;28;20060;-65
2022/10/10 11:23:46;;;;;;;10.55;6.82;;;26.40;99.90;;;;;;5022781;28;20507;-65
2022/10/10 11:26:54;;;;;;;7.68;6.35;;;26.20;99.90;;;;;;5031061;28;20045;-65
2022/10/10 11:30:14;;;;;;;11.45;6.63;;;26.20;99.90;;;;;;5031924;28;20047;-65
2022/10/10 11:33:31;;;;;;;11.07;7.10;;;25.90;99.90;;;;;;5030465;28;20507;-65
2022/10/10 11:36:41;;;;;;;9.60;7.35;;;25.80;99.90;;;;;;5029784;28;20500;-65
2022/10/10 11:39:56;;;;;;;8.82;6.75;;;25.60;99.90;;;;;;5024324;28;20109;-65
2022/10/10 11:43:17;;;;;;;10.13;6.38;;;25.20;99.90;;;;;;5021381;28;20488;-65
2022/10/10 11:46:45;;;;;;;11.40;6.80;;;24.90;99.90;;;;;;5024535;28;20053;-65
2022/10/10 11:49:54;;;;;;;12.40;6.28;;;24.50;99.90;;;;;;5027690;28;20052;-65
2022/10/10 11:53:22;;;;;;;8.43;6.35;;;24.50;99.90;;;;;;5016653;28;20037;-65
2022/10/10 11:56:34;;;;;;;13.98;6.40;;;24.10;99.90;;;;;;5027578;28;20048;-65
2022/10/10 12:00:15;;;;;;;9.13;6.20;;;23.80;99.90;;;;;;5014317;28;20133;-65
2022/10/10 12:03:24;;;;;;;9.07;6.38;;;23.80;99.90;;;;;;5023161;28;20056;-65
2022/10/10 12:06:43;;;;;;;9.20;5.82;;;23.80;99.90;;;;;;5023548;28;20043;-66
2022/10/10 12:10:04;;;;;;;10.32;6.15;;;23.90;99.90;;;;;;5026422;28;20049;-66
2022/10/10 12:13:18;;;;;;;;;;;24.10;99.90;;;;;;5027795;28;20040;-66
2022/10/10 12:16:27;;;;;;;11.23;6.53;;;24.30;99.90;;;;;;5022075;28;19916;-67
2022/10/10 12:19:31;;;;;;;9.15;5.57;;;24.20;99.90;;;;;;5030467;28;20056;-66
2022/10/10 12:22:35;;;;;;;11.40;6.53;;;24.10;99.90;;;;;;5027494;28;20056;-66
2022/10/10 12:25:44;;;;;;;14.82;9.90;;;24.00;99.90;;;;;;5030221;28;20589;-66
2022/10/10 12:29:08;;;;;;;17.95;9.88;;;23.90;99.90;;;;;;5028471;28;20049;-66
2022/10/10 12:32:13;;;;;;;11.35;7.65;;;23.70;99.90;;;;;;5029401;28;20499;-66
2022/10/10 12:35:29;;;;;;;9.43;7.25;;;23.60;99.90;;;;;;5025720;28;20048;-66
2022/10/10 12:38:36;;;;;;;42.05;26.70;;;23.40;99.90;;;;;;5024677;28;20052;-65
2022/10/10 12:41:41;;;;;;;66.78;43.88;;;23.40;99.90;;;;;;5028288;28;20072;-65
2022/10/10 12:44:45;;;;;;;94.72;57.08;;;23.40;99.90;;;;;;5025409;28;20032;-65
2022/10/10 12:47:50;;;;;;;53.67;34.25;;;23.40;99.90;;;;;;5026474;28;20048;-65
2022/10/10 12:50:57;;;;;;;32.65;22.52;;;23.40;99.90;;;;;;5026205;28;20048;-66
2022/10/10 12:54:04;;;;;;;22.52;13.95;;;23.40;99.90;;;;;;5026987;28;20036;-66
2022/10/10 12:57:11;;;;;;;15.60;10.23;;;23.40;99.90;;;;;;5024306;28;20056;-66
2022/10/10 13:00:20;;;;;;;14.35;9.95;;;23.30;99.90;;;;;;5029307;28;20060;-66
2022/10/10 13:03:45;;;;;;;9.52;7.65;;;23.20;99.90;;;;;;5025402;28;20121;-66
2022/10/10 13:06:54;;;;;;;10.43;6.40;;;23.10;99.90;;;;;;5036019;28;20052;-65
2022/10/10 13:10:07;;;;;;;8.43;6.82;;;23.10;99.90;;;;;;5028835;28;20045;-65
2022/10/10 13:13:19;;;;;;;7.90;6.85;;;23.20;99.90;;;;;;5026583;28;20243;-66
2022/10/10 13:16:29;;;;;;;7.93;6.32;;;23.60;99.90;;;;;;5025837;28;20120;-65
2022/10/10 13:19:40;;;;;;;7.40;6.70;;;24.10;99.90;;;;;;5026593;28;20040;-66
2022/10/10 13:22:44;;;;;;;8.02;6.45;;;24.60;99.90;;;;;;5025556;28;20139;-66
2022/10/10 13:25:48;;;;;;;11.65;7.68;;;24.90;99.90;;;;;;5028254;28;20507;-66
2022/10/10 13:28:55;;;;;;;10.90;6.78;;;25.30;99.90;;;;;;5024951;28;20052;-66
2022/10/10 13:32:07;;;;;;;12.32;7.18;;;25.70;99.90;;;;;;5025563;28;20048;-65
2022/10/10 13:35:19;;;;;;;12.20;5.88;;;26.00;99.90;;;;;;5027323;28;20048;-65
2022/10/10 13:38:24;;;;;;;6.70;5.18;;;26.20;99.90;;;;;;5027945;28;20428;-66
2022/10/10 13:41:28;;;;;;;8.85;5.28;;;26.10;99.90;;;;;;5026187;28;20040;-66
2022/10/10 13:44:48;;;;;;;8.10;5.55;;;26.00;99.90;;;;;;5023138;28;20040;-65
2022/10/10 13:47:53;;;;;;;11.98;6.30;;;25.60;99.90;;;;;;5026542;28;20044;-65
2022/10/10 13:51:08;;;;;;;6.70;5.45;;;25.50;99.90;;;;;;5022352;28;20044;-66
2022/10/10 13:54:49;;;;;;;7.53;5.32;;;25.60;99.90;;;;;;5027455;28;20036;-66
2022/10/10 13:57:53;;;;;;;8.57;4.82;;;25.80;99.90;;;;;;5030398;28;20037;-65
2022/10/10 14:01:00;;;;;;;6.93;5.43;;;26.00;99.90;;;;;;5029897;28;20053;-65
2022/10/10 14:04:22;;;;;;;11.90;5.63;;;26.10;99.90;;;;;;5031157;28;20032;-66
2022/10/10 14:07:28;;;;;;;6.78;5.40;;;26.00;99.90;;;;;;5030741;28;20251;-66
2022/10/10 14:10:35;;;;;;;9.77;5.50;;;25.80;99.90;;;;;;5029162;28;20056;-65
2022/10/10 14:13:50;;;;;;;9.35;5.70;;;25.30;99.90;;;;;;5029807;28;20040;-66
2022/10/10 14:17:02;;;;;;;8.55;5.18;;;25.20;99.90;;;;;;5029609;28;20036;-66
2022/10/10 14:20:12;;;;;;;7.65;5.78;;;25.10;99.90;;;;;;5029284;28;20507;-66
2022/10/10 14:23:16;;;;;;;8.10;5.28;;;25.10;99.90;;;;;;5030244;28;20045;-65
2022/10/10 14:26:20;;;;;;;6.55;4.88;;;25.20;99.90;;;;;;5030604;28;20420;-66
2022/10/10 14:29:24;;;;;;;9.95;5.13;;;25.50;99.90;;;;;;5032228;28;20056;-66
2022/10/10 14:32:28;;;;;;;9.40;5.00;;;25.40;99.90;;;;;;5032163;28;20531;-66
2022/10/10 14:35:33;;;;;;;6.95;5.72;;;25.30;99.90;;;;;;5031672;28;20049;-66
2022/10/10 14:38:36;;;;;;;13.10;6.18;;;25.00;99.90;;;;;;5031233;28;20066;-66
2022/10/10 14:41:41;;;;;;;10.57;5.57;;;24.70;99.90;;;;;;5027102;28;20048;-66
2022/10/10 14:44:45;;;;;;;9.90;5.70;;;24.40;99.90;;;;;;5022006;28;20045;-66
2022/10/10 14:47:50;;;;;;;10.63;6.07;;;24.00;99.90;;;;;;5031456;28;20049;-65
2022/10/10 14:50:55;;;;;;;8.32;5.90;;;23.70;99.90;;;;;;5028365;28;20052;-65
2022/10/10 14:53:58;;;;;;;12.57;6.32;;;23.50;99.90;;;;;;5025042;28;20049;-65
2022/10/10 14:57:02;;;;;;;11.15;7.22;;;23.20;99.90;;;;;;5029389;28;20040;-66
2022/10/10 15:00:13;;;;;;;12.57;7.72;;;23.20;99.90;;;;;;5031772;28;20048;-65
2022/10/10 15:03:17;;;;;;;13.20;7.20;;;22.80;99.90;;;;;;5032325;28;20045;-65
2022/10/10 15:06:21;;;;;;;15.85;8.55;;;22.70;99.90;;;;;;5023722;28;20125;-66
2022/10/10 15:09:25;;;;;;;10.70;7.13;;;22.60;99.90;;;;;;5024440;28;20507;-66
2022/10/10 15:12:31;;;;;;;21.55;7.93;;;22.30;99.90;;;;;;5030483;28;20048;-66
2022/10/10 15:15:35;;;;;;;13.48;7.53;;;22.20;99.90;;;;;;5023777;28;20036;-65
2022/10/10 15:18:39;;;;;;;11.48;7.82;;;22.00;99.90;;;;;;5030587;28;20048;-66
2022/10/10 15:21:43;;;;;;;13.68;8.30;;;21.80;99.90;;;;;;5028460;28;20040;-65
2022/10/10 15:24:47;;;;;;;21.70;7.85;;;21.50;99.90;;;;;;5029018;28;20431;-65
2022/10/10 15:27:51;;;;;;;12.13;8.20;;;21.40;99.90;;;;;;5028254;28;20052;-65
2022/10/10 15:30:55;;;;;;;9.68;7.88;;;21.20;99.90;;;;;;5029503;28;20044;-65
2022/10/10 15:33:59;;;;;;;12.48;7.82;;;21.10;99.90;;;;;;5028197;28;20045;-66
2022/10/10 15:37:04;;;;;;;12.80;7.78;;;21.10;99.90;;;;;;5030752;28;20045;-65
2022/10/10 15:40:09;;;;;;;11.82;7.65;;;21.00;99.90;;;;;;5030438;28;20049;-66
2022/10/10 15:43:14;;;;;;;12.38;8.43;;;21.10;99.90;;;;;;5030584;28;20060;-65
2022/10/10 15:46:19;;;;;;;10.00;6.78;;;21.10;99.90;;;;;;5027614;28;20052;-65
2022/10/10 15:49:24;;;;;;;14.68;7.72;;;21.10;99.90;;;;;;5021768;28;20059;-65
2022/10/10 15:52:28;;;;;;;9.50;6.93;;;21.00;99.90;;;;;;5030325;28;20049;-65
2022/10/10 15:55:32;;;;;;;16.08;8.40;;;20.90;99.90;;;;;;5028737;28;20048;-65
2022/10/10 15:58:38;;;;;;;11.70;7.88;;;20.80;99.90;;;;;;5025102;28;20044;-65
2022/10/10 16:01:41;;;;;;;10.30;7.70;;;20.60;99.90;;;;;;5025888;28;20044;-65
2022/10/10 16:04:46;;;;;;;12.27;8.48;;;20.50;99.90;;;;;;5026108;28;20040;-65